createdAt,value
2018-09-19T00:00:18.288Z,63.31
2018-09-19T00:02:47.141Z,63.40
2018-09-19T00:05:15.726Z,63.79
2018-09-19T00:07:44.386Z,64.03
2018-09-19T00:10:13.232Z,64.73
2018-09-19T00:12:41.894Z,64.82
2018-09-19T00:15:10.796Z,65.00
2018-09-19T00:17:40.147Z,65.33
2018-09-19T00:20:08.425Z,65.54
2018-09-19T00:22:37.736Z,65.64
2018-09-19T00:25:06.322Z,66.04
2018-09-19T00:27:34.600Z,65.84
2018-09-19T00:30:02.909Z,66.39
2018-09-19T00:32:31.283Z,66.30
2018-09-19T00:34:59.487Z,65.97
2018-09-19T00:37:28.420Z,66.48
2018-09-19T00:39:56.887Z,65.50
2018-09-19T00:42:25.103Z,64.70
2018-09-19T00:44:53.340Z,63.84
2018-09-19T00:47:21.829Z,64.19
2018-09-19T00:49:50.639Z,64.03
2018-09-19T00:52:18.867Z,63.46
2018-09-19T00:54:47.198Z,62.91
2018-09-19T00:57:15.517Z,63.44
2018-09-19T00:59:43.753Z,63.68
2018-09-19T01:02:11.966Z,64.86
2018-09-19T01:04:41.037Z,65.68
2018-09-19T01:07:09.356Z,65.69
2018-09-19T01:09:38.212Z,65.98
2018-09-19T01:12:06.538Z,66.50
2018-09-19T01:14:34.786Z,66.74
2018-09-19T01:17:03.040Z,66.46
2018-09-19T01:19:31.462Z,66.54
2018-09-19T01:21:59.825Z,67.50
2018-09-19T01:24:28.381Z,67.51
2018-09-19T01:27:04.797Z,67.66
2018-09-19T01:29:33.642Z,68.09
2018-09-19T01:32:02.377Z,68.63
2018-09-19T01:34:30.711Z,68.68
2018-09-19T01:37:02.602Z,68.68
2018-09-19T01:39:32.732Z,69.09
2018-09-19T01:42:01.066Z,69.23
2018-09-19T01:44:29.447Z,68.66
2018-09-19T01:46:58.315Z,68.52
2018-09-19T01:49:26.824Z,68.60
2018-09-19T01:51:55.501Z,67.67
2018-09-19T01:54:24.857Z,66.09
2018-09-19T01:56:54.024Z,65.18
2018-09-19T01:59:22.402Z,65.87
2018-09-19T02:01:51.162Z,66.22
2018-09-19T02:04:20.345Z,66.81
2018-09-19T02:06:49.033Z,67.82
2018-09-19T02:09:17.572Z,68.50
2018-09-19T02:11:46.530Z,69.50
2018-09-19T02:14:14.773Z,70.11
2018-09-19T02:16:43.392Z,70.30
2018-09-19T02:19:12.042Z,71.05
2018-09-19T02:21:40.384Z,70.88
2018-09-19T02:24:08.633Z,70.60
2018-09-19T02:26:37.029Z,70.43
2018-09-19T02:29:05.516Z,70.62
2018-09-19T02:31:34.128Z,71.00
2018-09-19T02:34:02.484Z,70.66
2018-09-19T02:36:30.832Z,70.89
2018-09-19T02:38:59.340Z,70.90
2018-09-19T02:41:28.330Z,70.34
2018-09-19T02:43:56.659Z,70.69
2018-09-19T02:46:24.937Z,71.19
2018-09-19T02:48:53.207Z,71.04
2018-09-19T02:51:22.098Z,70.97
2018-09-19T02:53:50.888Z,71.18
2018-09-19T02:56:19.169Z,71.47
2018-09-19T02:58:47.476Z,71.88
2018-09-19T03:01:15.791Z,71.86
2018-09-19T03:03:44.031Z,72.01
2018-09-19T03:06:13.096Z,72.11
2018-09-19T03:08:41.778Z,72.82
2018-09-19T03:11:10.191Z,73.00
2018-09-19T03:13:38.666Z,73.00
2018-09-19T03:16:08.048Z,72.95
2018-09-19T03:18:37.008Z,73.40
2018-09-19T03:21:05.992Z,73.46
2018-09-19T03:23:34.215Z,73.62
2018-09-19T03:26:02.492Z,73.72
2018-09-19T03:28:30.741Z,73.98
2018-09-19T03:30:58.999Z,73.63
2018-09-19T03:33:27.210Z,73.75
2018-09-19T03:35:55.520Z,74.48
2018-09-19T03:38:23.773Z,74.40
2018-09-19T03:40:52.354Z,74.58
2018-09-19T03:43:20.988Z,74.81
2018-09-19T03:45:50.239Z,74.59
2018-09-19T03:48:19.072Z,74.75
2018-09-19T03:50:47.614Z,74.74
2018-09-19T03:53:15.973Z,74.89
2018-09-19T03:55:44.398Z,74.89
2018-09-19T03:58:12.725Z,75.26
2018-09-19T04:00:41.992Z,74.88
2018-09-19T04:03:10.250Z,75.34
2018-09-19T04:05:39.176Z,75.26
2018-09-19T04:08:07.822Z,75.73
2018-09-19T04:10:36.745Z,76.21
2018-09-19T04:13:05.132Z,75.80
2018-09-19T04:15:33.802Z,75.75
2018-09-19T04:18:02.697Z,75.78
2018-09-19T04:20:31.241Z,76.07
2018-09-19T04:23:00.193Z,76.36
2018-09-19T04:25:29.368Z,76.28
2018-09-19T04:27:57.663Z,76.85
2018-09-19T04:30:25.905Z,77.27
2018-09-19T04:32:54.398Z,76.83
2018-09-19T04:35:23.909Z,76.93
2018-09-19T04:37:52.162Z,77.35
2018-09-19T04:40:20.442Z,77.12
2018-09-19T04:42:49.267Z,77.37
2018-09-19T04:45:17.699Z,77.12
2018-09-19T04:47:45.850Z,77.19
2018-09-19T04:50:15.087Z,76.88
2018-09-19T04:52:43.588Z,77.06
2018-09-19T04:55:12.148Z,77.04
2018-09-19T04:57:41.091Z,77.09
2018-09-19T05:00:09.901Z,76.86
2018-09-19T05:02:38.345Z,77.25
2018-09-19T05:05:07.105Z,76.95
2018-09-19T05:07:35.327Z,76.77
2018-09-19T05:10:03.681Z,77.20
2018-09-19T05:12:32.078Z,77.18
2018-09-19T05:15:00.364Z,77.43
2018-09-19T05:17:28.612Z,76.98
2018-09-19T05:19:57.101Z,77.24
2018-09-19T05:22:26.489Z,77.42
2018-09-19T05:24:54.757Z,77.30
2018-09-19T05:27:23.341Z,77.29
2018-09-19T05:29:51.769Z,77.66
2018-09-19T05:32:20.238Z,77.45
2018-09-19T05:34:48.837Z,77.06
2018-09-19T05:37:18.396Z,76.81
2018-09-19T05:39:47.235Z,76.31
2018-09-19T05:42:16.103Z,76.13
2018-09-19T05:44:44.520Z,75.58
2018-09-19T05:47:12.856Z,75.63
2018-09-19T05:49:41.307Z,75.51
2018-09-19T05:52:09.551Z,75.24
2018-09-19T05:54:37.893Z,74.73
2018-09-19T05:57:06.412Z,74.03
2018-09-19T05:59:34.764Z,73.38
2018-09-19T06:02:04.354Z,73.31
2018-09-19T06:04:32.636Z,72.80
2018-09-19T06:07:01.016Z,72.42
2018-09-19T06:09:29.266Z,71.85
2018-09-19T06:11:58.180Z,71.23
2018-09-19T06:14:26.664Z,71.29
2018-09-19T06:16:54.941Z,70.86
2018-09-19T06:19:23.903Z,70.14
2018-09-19T06:21:52.418Z,70.03
2018-09-19T06:24:21.108Z,69.00
2018-09-19T06:26:49.342Z,68.30
2018-09-19T06:29:18.014Z,68.04
2018-09-19T06:31:46.284Z,68.13
2018-09-19T06:34:14.802Z,67.00
2018-09-19T06:36:43.084Z,66.74
2018-09-19T06:39:11.602Z,67.01
2018-09-19T06:41:39.912Z,67.18
2018-09-19T06:44:09.108Z,66.11
2018-09-19T06:46:37.605Z,65.23
2018-09-19T06:49:06.561Z,65.05
2018-09-19T06:51:34.827Z,64.29
2018-09-19T06:54:03.716Z,64.12
2018-09-19T06:56:32.177Z,63.70
2018-09-19T06:59:00.375Z,63.65
2018-09-19T07:01:28.751Z,62.83
2018-09-19T07:03:57.033Z,63.11
2018-09-19T07:06:25.286Z,62.41
2018-09-19T07:08:53.547Z,62.18
2018-09-19T07:11:22.668Z,61.80
2018-09-19T07:13:51.269Z,61.76
2018-09-19T07:16:20.321Z,61.34
2018-09-19T07:18:48.672Z,60.67
2018-09-19T07:21:17.204Z,59.48
2018-09-19T07:23:45.431Z,60.42
2018-09-19T07:26:13.843Z,60.20
2018-09-19T07:28:42.347Z,59.91
2018-09-19T07:31:10.591Z,59.06
2018-09-19T07:33:39.356Z,58.32
2018-09-19T07:36:07.602Z,58.71
2018-09-19T07:38:36.173Z,58.27
2018-09-19T07:41:04.596Z,58.02
2018-09-19T07:43:34.108Z,57.98
2018-09-19T07:46:02.304Z,57.18
2018-09-19T07:48:30.626Z,57.39
2018-09-19T07:50:59.273Z,57.41
2018-09-19T07:53:35.344Z,56.49
2018-09-19T07:56:04.785Z,57.00
2018-09-19T07:58:34.475Z,56.56
2018-09-19T08:01:02.736Z,55.38
2018-09-19T08:03:32.160Z,55.35
2018-09-19T08:06:00.862Z,55.36
2018-09-19T08:08:29.688Z,54.74
2018-09-19T08:10:58.043Z,55.00
2018-09-19T08:13:27.489Z,54.96
2018-09-19T08:15:56.512Z,54.65
2018-09-19T08:18:24.790Z,53.79
2018-09-19T08:20:53.417Z,53.48
2018-09-19T08:23:21.688Z,52.77
2018-09-19T08:25:50.626Z,52.00
2018-09-19T08:28:19.112Z,52.41
2018-09-19T08:30:47.706Z,51.76
2018-09-19T08:33:16.050Z,51.11
2018-09-19T08:35:44.587Z,51.69
2018-09-19T08:38:13.244Z,51.46
2018-09-19T08:40:41.731Z,50.54
2018-09-19T08:43:10.490Z,50.12
2018-09-19T08:45:39.766Z,49.59
2018-09-19T08:48:08.061Z,48.85
2018-09-19T08:50:37.216Z,49.20
2018-09-19T08:53:06.326Z,48.65
2018-09-19T08:55:34.544Z,48.39
2018-09-19T08:58:02.918Z,48.25
2018-09-19T09:00:31.231Z,47.84
2018-09-19T09:02:59.604Z,47.81
2018-09-19T09:05:28.644Z,47.30
2018-09-19T09:07:57.125Z,46.89
2018-09-19T09:10:26.525Z,47.07
2018-09-19T09:12:56.706Z,47.02
2018-09-19T09:15:25.942Z,46.45
2018-09-19T09:17:55.396Z,46.22
2018-09-19T09:20:24.210Z,45.75
2018-09-19T09:22:54.255Z,45.65
2018-09-19T09:25:22.480Z,45.31
2018-09-19T09:27:50.818Z,45.08
2018-09-19T09:30:19.229Z,45.48
2018-09-19T09:32:47.997Z,45.07
2018-09-19T09:35:16.273Z,44.90
2018-09-19T09:37:44.682Z,43.69
2018-09-19T09:40:13.171Z,43.20
2018-09-19T09:42:42.950Z,41.52
2018-09-19T09:45:11.204Z,40.91
2018-09-19T09:47:39.880Z,41.02
2018-09-19T09:50:10.103Z,41.01
2018-09-19T09:52:38.664Z,40.18
2018-09-19T09:55:06.956Z,39.01
2018-09-19T09:57:35.198Z,38.55
2018-09-19T10:00:03.560Z,37.33
2018-09-19T10:02:32.624Z,37.15
2018-09-19T10:05:00.854Z,36.95
2018-09-19T10:07:29.095Z,37.08
2018-09-19T10:09:58.355Z,36.76
2018-09-19T10:12:26.593Z,36.88
2018-09-19T10:14:55.466Z,36.26
2018-09-19T10:17:24.000Z,36.24
2018-09-19T10:19:52.228Z,35.75
2018-09-19T10:22:20.912Z,35.60
2018-09-19T10:24:49.125Z,36.03
2018-09-19T10:27:17.500Z,35.13
2018-09-19T10:29:46.128Z,35.07
2018-09-19T10:32:14.609Z,34.08
2018-09-19T10:34:42.885Z,34.08
2018-09-19T10:37:11.614Z,33.87
2018-09-19T10:39:39.864Z,33.98
2018-09-19T10:42:08.518Z,33.38
2018-09-19T10:44:36.720Z,33.46
2018-09-19T10:47:05.898Z,32.60
2018-09-19T10:52:07.336Z,32.92
2018-09-19T10:54:35.655Z,33.14
2018-09-19T10:57:06.078Z,32.22
2018-09-19T10:59:34.557Z,33.13
2018-09-19T11:02:04.367Z,32.17
2018-09-19T11:04:33.283Z,31.51
2018-09-19T11:07:02.810Z,31.51
2018-09-19T11:09:32.175Z,30.82
2018-09-19T11:12:01.283Z,30.77
2018-09-19T11:14:30.092Z,30.70
2018-09-19T11:16:58.486Z,30.83
2018-09-19T11:19:27.102Z,30.42
2018-09-19T11:21:55.343Z,30.44
2018-09-19T11:24:25.078Z,30.23
2018-09-19T11:26:55.269Z,29.70
2018-09-19T11:29:25.792Z,29.11
2018-09-19T11:31:56.002Z,29.28
2018-09-19T11:34:24.412Z,29.74
2018-09-19T11:36:52.761Z,29.98
2018-09-19T11:39:21.050Z,30.54
2018-09-19T11:41:49.393Z,30.46
2018-09-19T11:44:18.511Z,30.10
2018-09-19T11:46:46.687Z,29.71
2018-09-19T11:49:15.197Z,29.67
2018-09-19T11:51:43.843Z,29.97
2018-09-19T11:54:12.739Z,30.66
2018-09-19T11:56:41.366Z,30.45
2018-09-19T11:59:09.644Z,29.50
2018-09-19T12:01:43.782Z,29.59
2018-09-19T12:04:12.106Z,29.18
2018-09-19T12:06:40.480Z,28.98
2018-09-19T12:09:11.310Z,28.39
2018-09-19T12:11:39.658Z,29.35
2018-09-19T12:14:08.037Z,29.14
2018-09-19T12:16:37.544Z,29.20
2018-09-19T12:19:07.091Z,29.21
2018-09-19T12:21:35.700Z,28.90
2018-09-19T12:24:04.902Z,28.11
2018-09-19T12:26:33.421Z,28.37
2018-09-19T12:29:02.487Z,28.42
2018-09-19T12:31:31.115Z,28.68
2018-09-19T12:33:59.644Z,28.45
2018-09-19T12:36:28.574Z,27.92
2018-09-19T12:38:56.790Z,27.41
2018-09-19T12:41:25.027Z,28.79
2018-09-19T12:43:53.525Z,27.98
2018-09-19T12:46:22.452Z,28.04
2018-09-19T12:48:57.866Z,28.27
2018-09-19T12:51:26.176Z,27.67
2018-09-19T12:53:54.436Z,27.51
2018-09-19T12:56:22.808Z,26.83
2018-09-19T12:58:51.096Z,27.16
2018-09-19T13:01:20.184Z,27.78
2018-09-19T13:03:48.472Z,27.64
2018-09-19T13:06:16.695Z,26.58
2018-09-19T13:08:44.942Z,26.88
2018-09-19T13:11:13.772Z,27.03
2018-09-19T13:13:42.808Z,25.08
2018-09-19T13:16:11.128Z,24.36
2018-09-19T13:18:39.436Z,22.26
2018-09-19T13:21:08.146Z,21.60
2018-09-19T13:23:36.398Z,20.35
2018-09-19T13:26:04.816Z,19.95
2018-09-19T13:28:33.310Z,19.68
2018-09-19T13:31:01.880Z,18.46
2018-09-19T13:33:30.204Z,18.47
2018-09-19T13:35:58.726Z,17.88
2018-09-19T13:38:27.046Z,19.38
2018-09-19T13:40:55.375Z,19.31
2018-09-19T13:43:23.926Z,18.35
2018-09-19T13:45:52.418Z,17.91
2018-09-19T13:48:20.941Z,18.83
2018-09-19T13:51:01.425Z,18.18
2018-09-19T13:53:29.730Z,18.69
2018-09-19T13:55:58.006Z,17.31
2018-09-19T13:58:26.608Z,18.37
2018-09-19T14:00:55.067Z,17.05
2018-09-19T14:03:23.596Z,16.56
2018-09-19T14:05:51.865Z,16.61
2018-09-19T14:08:21.737Z,16.13
2018-09-19T14:10:51.439Z,16.19
2018-09-19T14:13:19.980Z,16.07
2018-09-19T14:15:48.523Z,15.60
2018-09-19T14:18:16.770Z,16.65
2018-09-19T14:20:45.528Z,16.92
2018-09-19T14:23:13.755Z,17.86
2018-09-19T14:25:42.055Z,15.61
2018-09-19T14:28:10.568Z,14.37
2018-09-19T14:30:38.991Z,14.33
2018-09-19T14:33:07.502Z,15.62
2018-09-19T14:35:35.759Z,15.24
2018-09-19T14:38:05.144Z,16.09
2018-09-19T14:40:33.311Z,15.53
2018-09-19T14:43:01.828Z,15.96
2018-09-19T14:45:30.297Z,15.75
2018-09-19T14:47:58.569Z,16.96
2018-09-19T14:50:26.870Z,17.29
2018-09-19T14:52:55.376Z,16.95
2018-09-19T14:55:23.624Z,16.04
2018-09-19T14:57:52.151Z,15.26
2018-09-19T15:00:21.334Z,14.73
2018-09-19T15:02:49.830Z,14.80
2018-09-19T15:05:18.130Z,13.59
2018-09-19T15:07:47.000Z,13.34
2018-09-19T15:10:16.206Z,13.38
2018-09-19T15:12:44.522Z,13.10
2018-09-19T15:15:13.029Z,14.20
2018-09-19T15:17:41.530Z,14.81
2018-09-19T15:20:09.740Z,14.61
2018-09-19T15:22:38.324Z,14.33
2018-09-19T15:25:06.933Z,15.00
2018-09-19T15:27:35.215Z,15.11
2018-09-19T15:30:04.118Z,13.45
2018-09-19T15:32:32.604Z,13.71
2018-09-19T15:35:00.868Z,14.00
2018-09-19T15:37:29.561Z,14.44
2018-09-19T15:39:58.208Z,14.80
2018-09-19T15:42:26.477Z,14.75
2018-09-19T15:44:54.853Z,15.77
2018-09-19T15:47:23.730Z,16.03
2018-09-19T15:49:51.995Z,15.43
2018-09-19T15:52:20.545Z,15.35
2018-09-19T15:54:49.080Z,15.46
2018-09-19T15:57:17.691Z,15.49
2018-09-19T15:59:45.836Z,15.29
2018-09-19T16:02:14.268Z,16.77
2018-09-19T16:04:42.978Z,16.60
2018-09-19T16:07:11.993Z,17.83
2018-09-19T16:09:40.260Z,17.65
2018-09-19T16:12:08.446Z,18.44
2018-09-19T16:14:36.964Z,19.75
2018-09-19T16:17:05.561Z,21.04
2018-09-19T16:19:33.813Z,21.62
2018-09-19T16:22:02.328Z,23.00
2018-09-19T16:24:30.570Z,25.24
2018-09-19T16:26:59.356Z,26.91
2018-09-19T16:29:27.900Z,27.37
2018-09-19T16:31:56.480Z,28.96
2018-09-19T16:34:24.983Z,27.50
2018-09-19T16:36:53.263Z,28.69
2018-09-19T16:39:22.488Z,29.74
2018-09-19T16:41:50.705Z,29.96
2018-09-19T16:44:19.375Z,30.72
2018-09-19T16:46:48.043Z,31.10
2018-09-19T16:49:16.560Z,31.26
2018-09-19T16:51:44.918Z,31.60
2018-09-19T16:54:13.571Z,32.30
2018-09-19T16:56:42.504Z,32.90
2018-09-19T16:59:10.754Z,32.98
2018-09-19T17:01:39.815Z,33.39
2018-09-19T17:04:08.153Z,34.04
2018-09-19T17:06:37.057Z,34.27
2018-09-19T17:09:07.482Z,35.05
2018-09-19T17:11:35.897Z,35.13
2018-09-19T17:14:04.978Z,35.82
2018-09-19T17:16:33.741Z,36.24
2018-09-19T17:19:03.002Z,36.43
2018-09-19T17:21:31.314Z,36.33
2018-09-19T17:24:00.013Z,37.03
2018-09-19T17:26:28.195Z,36.82
2018-09-19T17:28:57.047Z,37.29
2018-09-19T17:31:25.510Z,37.71
2018-09-19T17:33:53.850Z,38.46
2018-09-19T17:36:22.047Z,38.81
2018-09-19T17:38:50.348Z,39.42
2018-09-19T17:41:18.859Z,39.88
2018-09-19T17:43:47.685Z,40.08
2018-09-19T17:46:16.170Z,40.68
2018-09-19T17:48:44.420Z,41.06
2018-09-19T17:51:12.650Z,41.20
2018-09-19T17:53:40.927Z,41.26
2018-09-19T17:56:09.250Z,41.70
2018-09-19T17:58:37.569Z,42.26
2018-09-19T18:01:05.773Z,42.67
2018-09-19T18:03:34.109Z,42.96
2018-09-19T18:06:02.768Z,43.45
2018-09-19T18:08:31.066Z,43.70
2018-09-19T18:10:59.616Z,43.44
2018-09-19T18:13:29.975Z,43.46
2018-09-19T18:15:59.313Z,43.84
2018-09-19T18:18:29.589Z,43.59
2018-09-19T18:20:59.020Z,44.11
2018-09-19T18:23:28.240Z,44.34
2018-09-19T18:25:57.553Z,44.87
2018-09-19T18:28:26.188Z,44.94
2018-09-19T18:30:55.357Z,45.18
2018-09-19T18:33:24.598Z,46.01
2018-09-19T18:35:54.233Z,46.18
2018-09-19T18:38:23.620Z,46.62
2018-09-19T18:40:53.545Z,46.91
2018-09-19T18:43:22.907Z,47.18
2018-09-19T18:45:52.358Z,47.27
2018-09-19T18:48:21.875Z,47.69
2018-09-19T18:50:50.813Z,47.93
2018-09-19T18:53:20.134Z,48.02
2018-09-19T18:55:49.772Z,48.12
2018-09-19T18:58:19.742Z,48.14
2018-09-19T19:00:49.084Z,48.63
2018-09-19T19:03:18.408Z,48.99
2018-09-19T19:05:46.716Z,49.61
2018-09-19T19:08:16.424Z,49.51
2018-09-19T19:10:45.513Z,49.92
2018-09-19T19:13:14.285Z,49.84
2018-09-19T19:15:43.652Z,50.17
2018-09-19T19:18:12.601Z,50.15
2018-09-19T19:20:42.333Z,50.84
2018-09-19T19:23:10.660Z,51.24
2018-09-19T19:25:39.530Z,51.23
2018-09-19T19:28:07.779Z,51.28
2018-09-19T19:30:37.019Z,51.57
2018-09-19T19:33:05.450Z,51.78
2018-09-19T19:35:33.788Z,52.54
2018-09-19T19:38:02.489Z,52.41
2018-09-19T19:40:30.725Z,52.48
2018-09-19T19:42:59.050Z,53.08
2018-09-19T19:45:27.410Z,53.17
2018-09-19T19:47:55.684Z,54.50
2018-09-19T19:50:23.968Z,54.39
2018-09-19T19:52:52.564Z,54.62
2018-09-19T19:55:21.085Z,55.42
2018-09-19T19:57:49.740Z,55.21
2018-09-19T20:00:18.645Z,55.32
2018-09-19T20:02:47.661Z,55.85
2018-09-19T20:05:16.631Z,55.70
2018-09-19T20:07:45.253Z,56.39
2018-09-19T20:10:13.788Z,56.39
2018-09-19T20:12:42.012Z,56.33
2018-09-19T20:15:10.214Z,56.01
2018-09-19T20:17:38.663Z,56.04
2018-09-19T20:20:07.192Z,56.21
2018-09-19T20:22:35.441Z,56.43
2018-09-19T20:25:05.886Z,56.67
2018-09-19T20:27:41.073Z,56.69
2018-09-19T20:30:09.561Z,56.78
2018-09-19T20:32:37.773Z,57.56
2018-09-19T20:35:06.055Z,57.85
2018-09-19T20:37:34.843Z,58.78
2018-09-19T20:40:03.649Z,59.43
2018-09-19T20:42:31.905Z,59.63
2018-09-19T20:45:00.445Z,59.41
2018-09-19T20:47:28.918Z,59.46
2018-09-19T20:49:57.503Z,60.00
2018-09-19T20:52:25.701Z,59.86
2018-09-19T20:54:53.913Z,59.80
2018-09-19T20:57:22.535Z,60.96
2018-09-19T20:59:51.043Z,60.45
2018-09-19T21:02:19.317Z,60.15
2018-09-19T21:04:47.680Z,60.27
2018-09-19T21:07:15.948Z,60.09
2018-09-19T21:09:44.321Z,60.40
2018-09-19T21:12:12.693Z,60.61
2018-09-19T21:14:41.096Z,61.04
2018-09-19T21:17:10.184Z,61.00
2018-09-19T21:19:38.816Z,61.39
2018-09-19T21:22:08.059Z,62.40
2018-09-19T21:24:36.949Z,62.87
2018-09-19T21:27:05.966Z,63.02
2018-09-19T21:29:34.340Z,63.47
2018-09-19T21:32:03.904Z,63.61
2018-09-19T21:34:32.169Z,63.41
2018-09-19T21:37:00.860Z,63.54
2018-09-19T21:39:29.134Z,63.72
2018-09-19T21:41:57.463Z,64.01
2018-09-19T21:44:25.663Z,64.26
2018-09-19T21:46:54.621Z,64.01
2018-09-19T21:49:23.381Z,64.55
2018-09-19T21:51:51.633Z,64.70
2018-09-19T21:54:20.608Z,64.73
2018-09-19T21:56:50.505Z,65.29
2018-09-19T21:59:18.949Z,65.07
2018-09-19T22:01:51.699Z,65.37
2018-09-19T22:04:20.108Z,66.20
2018-09-19T22:06:52.229Z,65.37
2018-09-19T22:09:20.648Z,65.83
2018-09-19T22:11:49.228Z,65.42
2018-09-19T22:14:17.576Z,65.68
2018-09-19T22:16:45.938Z,66.34
2018-09-19T22:19:15.205Z,66.64
2018-09-19T22:21:43.463Z,66.22
2018-09-19T22:24:12.251Z,66.71
2018-09-19T22:26:40.762Z,66.38
2018-09-19T22:29:09.340Z,66.44
2018-09-19T22:31:37.625Z,66.06
2018-09-19T22:34:06.233Z,66.92
2018-09-19T22:36:35.021Z,66.50
2018-09-19T22:39:04.095Z,66.99
2018-09-19T22:41:32.556Z,67.73
2018-09-19T22:44:00.729Z,68.20
2018-09-19T22:46:29.512Z,67.92
2018-09-19T22:48:58.318Z,67.67
2018-09-19T22:51:26.772Z,67.67
2018-09-19T22:53:55.317Z,68.26
2018-09-19T22:56:23.571Z,68.40
2018-09-19T22:58:52.108Z,68.40
2018-09-19T23:01:20.462Z,68.25
2018-09-19T23:03:49.093Z,68.33
2018-09-19T23:06:17.545Z,68.34
2018-09-19T23:08:46.378Z,68.09
2018-09-19T23:11:14.662Z,68.50
2018-09-19T23:13:42.957Z,68.86
2018-09-19T23:19:20.746Z,68.58
2018-09-19T23:21:48.960Z,68.84
2018-09-19T23:24:17.564Z,69.30
2018-09-19T23:26:45.782Z,69.45
2018-09-19T23:29:14.455Z,69.78
2018-09-19T23:31:42.705Z,70.21
2018-09-19T23:34:11.532Z,69.96
2018-09-19T23:36:39.925Z,70.65
2018-09-19T23:39:09.595Z,70.32
2018-09-19T23:41:37.812Z,70.70
2018-09-19T23:44:06.241Z,70.62
2018-09-19T23:46:34.504Z,70.74
2018-09-19T23:49:02.957Z,70.60
2018-09-19T23:51:31.255Z,70.51
2018-09-19T23:53:59.497Z,70.42
2018-09-19T23:56:28.089Z,70.23
2018-09-19T23:58:56.337Z,70.38
